sensor_id;sensor_type;location;lat;lon;timestamp;temperature;humidity
56308;DHT22;42217;50.422;7.210;2023-05-29T00:00:28;12.70;99.90
56308;DHT22;42217;50.422;7.210;2023-05-29T00:02:54;12.70;99.90
56308;DHT22;42217;50.422;7.210;2023-05-29T00:05:20;12.40;99.90
56308;DHT22;42217;50.422;7.210;2023-05-29T00:07:46;12.00;99.90
56308;DHT22;42217;50.422;7.210;2023-05-29T00:10:12;12.20;99.90
56308;DHT22;42217;50.422;7.210;2023-05-29T00:12:38;12.50;99.90
56308;DHT22;42217;50.422;7.210;2023-05-29T00:15:05;12.40;99.90
56308;DHT22;42217;50.422;7.210;2023-05-29T00:17:31;12.00;99.90
56308;DHT22;42217;50.422;7.210;2023-05-29T00:20:00;11.90;99.90
56308;DHT22;42217;50.422;7.210;2023-05-29T00:22:27;12.00;99.90
56308;DHT22;42217;50.422;7.210;2023-05-29T00:24:53;11.80;99.90
56308;DHT22;42217;50.422;7.210;2023-05-29T00:27:18;11.40;99.90
56308;DHT22;42217;50.422;7.210;2023-05-29T00:29:45;11.10;99.90
56308;DHT22;42217;50.422;7.210;2023-05-29T00:32:11;10.90;99.90
56308;DHT22;42217;50.422;7.210;2023-05-29T00:34:36;10.80;99.90
56308;DHT22;42217;50.422;7.210;2023-05-29T00:37:02;10.80;99.90
56308;DHT22;42217;50.422;7.210;2023-05-29T00:39:28;10.90;99.90
56308;DHT22;42217;50.422;7.210;2023-05-29T00:41:54;10.80;99.90
56308;DHT22;42217;50.422;7.210;2023-05-29T00:44:20;10.60;99.90
56308;DHT22;42217;50.422;7.210;2023-05-29T00:46:48;10.40;99.90
56308;DHT22;42217;50.422;7.210;2023-05-29T00:49:16;10.40;99.90
56308;DHT22;42217;50.422;7.210;2023-05-29T00:51:42;10.20;99.90
56308;DHT22;42217;50.422;7.210;2023-05-29T00:54:13;10.10;99.90
56308;DHT22;42217;50.422;7.210;2023-05-29T00:56:41;10.10;99.90
56308;DHT22;42217;50.422;7.210;2023-05-29T00:59:10;10.50;99.90
56308;DHT22;42217;50.422;7.210;2023-05-29T01:01:37;10.50;99.90
56308;DHT22;42217;50.422;7.210;2023-05-29T01:04:03;10.30;99.90
56308;DHT22;42217;50.422;7.210;2023-05-29T01:06:32;10.20;99.90
56308;DHT22;42217;50.422;7.210;2023-05-29T01:08:58;10.00;99.90
56308;DHT22;42217;50.422;7.210;2023-05-29T01:11:35;10.20;99.90
56308;DHT22;42217;50.422;7.210;2023-05-29T01:14:07;10.40;99.90
56308;DHT22;42217;50.422;7.210;2023-05-29T01:16:35;10.80;99.90
56308;DHT22;42217;50.422;7.210;2023-05-29T01:22:01;10.40;99.90
56308;DHT22;42217;50.422;7.210;2023-05-29T01:24:50;10.20;99.90
56308;DHT22;42217;50.422;7.210;2023-05-29T01:27:21;10.30;99.90
56308;DHT22;42217;50.422;7.210;2023-05-29T01:29:52;10.60;99.90
56308;DHT22;42217;50.422;7.210;2023-05-29T01:32:20;10.80;99.90
56308;DHT22;42217;50.422;7.210;2023-05-29T01:34:46;10.70;99.90
56308;DHT22;42217;50.422;7.210;2023-05-29T01:37:12;10.50;99.90
56308;DHT22;42217;50.422;7.210;2023-05-29T01:39:38;10.50;99.90
56308;DHT22;42217;50.422;7.210;2023-05-29T01:42:05;10.30;99.90
56308;DHT22;42217;50.422;7.210;2023-05-29T01:44:31;10.00;99.90
56308;DHT22;42217;50.422;7.210;2023-05-29T01:46:57;9.80;99.90
56308;DHT22;42217;50.422;7.210;2023-05-29T01:49:24;9.60;99.90
56308;DHT22;42217;50.422;7.210;2023-05-29T01:51:50;9.60;99.90
56308;DHT22;42217;50.422;7.210;2023-05-29T01:54:16;9.70;99.90
56308;DHT22;42217;50.422;7.210;2023-05-29T01:56:42;9.80;99.90
56308;DHT22;42217;50.422;7.210;2023-05-29T01:59:08;10.10;99.90
56308;DHT22;42217;50.422;7.210;2023-05-29T02:01:34;10.20;99.90
56308;DHT22;42217;50.422;7.210;2023-05-29T02:04:00;10.10;99.90
56308;DHT22;42217;50.422;7.210;2023-05-29T02:06:25;10.00;99.90
56308;DHT22;42217;50.422;7.210;2023-05-29T02:08:51;9.80;99.90
56308;DHT22;42217;50.422;7.210;2023-05-29T02:11:17;9.60;99.90
56308;DHT22;42217;50.422;7.210;2023-05-29T02:13:42;9.60;99.90
56308;DHT22;42217;50.422;7.210;2023-05-29T02:16:08;9.60;99.90
56308;DHT22;42217;50.422;7.210;2023-05-29T02:18:34;9.50;99.90
56308;DHT22;42217;50.422;7.210;2023-05-29T02:21:02;9.40;99.90
56308;DHT22;42217;50.422;7.210;2023-05-29T02:23:28;9.40;99.90
56308;DHT22;42217;50.422;7.210;2023-05-29T02:25:54;9.50;99.90
56308;DHT22;42217;50.422;7.210;2023-05-29T02:28:20;9.40;99.90
56308;DHT22;42217;50.422;7.210;2023-05-29T02:30:45;9.30;99.90
56308;DHT22;42217;50.422;7.210;2023-05-29T02:33:11;9.40;99.90
56308;DHT22;42217;50.422;7.210;2023-05-29T02:35:36;9.60;99.90
56308;DHT22;42217;50.422;7.210;2023-05-29T02:38:02;9.50;99.90
56308;DHT22;42217;50.422;7.210;2023-05-29T02:40:28;9.50;99.90
56308;DHT22;42217;50.422;7.210;2023-05-29T02:42:53;9.70;99.90
56308;DHT22;42217;50.422;7.210;2023-05-29T02:45:19;9.60;99.90
56308;DHT22;42217;50.422;7.210;2023-05-29T02:47:45;9.70;99.90
56308;DHT22;42217;50.422;7.210;2023-05-29T02:50:10;9.70;99.90
56308;DHT22;42217;50.422;7.210;2023-05-29T02:52:36;10.10;99.90
56308;DHT22;42217;50.422;7.210;2023-05-29T02:55:03;10.50;99.90
56308;DHT22;42217;50.422;7.210;2023-05-29T02:57:29;11.00;99.90
56308;DHT22;42217;50.422;7.210;2023-05-29T02:59:55;11.40;99.90
56308;DHT22;42217;50.422;7.210;2023-05-29T03:02:21;11.50;99.90
56308;DHT22;42217;50.422;7.210;2023-05-29T03:04:46;11.70;99.90
56308;DHT22;42217;50.422;7.210;2023-05-29T03:07:15;11.80;99.90
56308;DHT22;42217;50.422;7.210;2023-05-29T03:09:41;12.00;99.90
56308;DHT22;42217;50.422;7.210;2023-05-29T03:12:07;11.90;99.90
56308;DHT22;42217;50.422;7.210;2023-05-29T03:14:32;11.90;99.90
56308;DHT22;42217;50.422;7.210;2023-05-29T03:17:05;11.70;99.90
56308;DHT22;42217;50.422;7.210;2023-05-29T03:19:32;11.60;99.90
56308;DHT22;42217;50.422;7.210;2023-05-29T03:21:57;11.50;99.90
56308;DHT22;42217;50.422;7.210;2023-05-29T03:24:23;11.50;99.90
56308;DHT22;42217;50.422;7.210;2023-05-29T03:26:49;11.60;99.90
56308;DHT22;42217;50.422;7.210;2023-05-29T03:29:16;11.70;99.90
56308;DHT22;42217;50.422;7.210;2023-05-29T03:31:42;11.70;99.90
56308;DHT22;42217;50.422;7.210;2023-05-29T03:34:07;11.70;99.90
56308;DHT22;42217;50.422;7.210;2023-05-29T03:36:33;11.50;99.90
56308;DHT22;42217;50.422;7.210;2023-05-29T03:39:02;11.50;99.90
56308;DHT22;42217;50.422;7.210;2023-05-29T03:41:28;11.40;99.90
56308;DHT22;42217;50.422;7.210;2023-05-29T03:43:54;11.40;99.90
56308;DHT22;42217;50.422;7.210;2023-05-29T03:46:20;11.40;99.90
56308;DHT22;42217;50.422;7.210;2023-05-29T03:48:45;11.50;99.90
56308;DHT22;42217;50.422;7.210;2023-05-29T03:51:11;11.40;99.90
56308;DHT22;42217;50.422;7.210;2023-05-29T03:53:37;11.50;99.90
56308;DHT22;42217;50.422;7.210;2023-05-29T03:56:02;11.50;99.90
56308;DHT22;42217;50.422;7.210;2023-05-29T03:58:28;11.60;99.90
56308;DHT22;42217;50.422;7.210;2023-05-29T04:00:54;11.70;99.90
56308;DHT22;42217;50.422;7.210;2023-05-29T04:03:19;11.80;99.90
56308;DHT22;42217;50.422;7.210;2023-05-29T04:05:45;11.90;99.90
56308;DHT22;42217;50.422;7.210;2023-05-29T04:08:11;11.90;99.90
56308;DHT22;42217;50.422;7.210;2023-05-29T04:10:39;11.90;99.90
56308;DHT22;42217;50.422;7.210;2023-05-29T04:13:05;12.00;99.90
56308;DHT22;42217;50.422;7.210;2023-05-29T04:15:32;12.00;99.90
56308;DHT22;42217;50.422;7.210;2023-05-29T04:18:00;12.20;99.90
56308;DHT22;42217;50.422;7.210;2023-05-29T04:20:26;12.30;99.90
56308;DHT22;42217;50.422;7.210;2023-05-29T04:22:52;12.40;99.90
56308;DHT22;42217;50.422;7.210;2023-05-29T04:25:18;12.40;99.90
56308;DHT22;42217;50.422;7.210;2023-05-29T04:27:44;12.40;99.90
56308;DHT22;42217;50.422;7.210;2023-05-29T04:30:14;12.40;99.90
56308;DHT22;42217;50.422;7.210;2023-05-29T04:32:40;12.40;99.90
56308;DHT22;42217;50.422;7.210;2023-05-29T04:35:06;12.50;99.90
56308;DHT22;42217;50.422;7.210;2023-05-29T04:37:32;12.60;99.90
56308;DHT22;42217;50.422;7.210;2023-05-29T04:40:07;12.60;99.90
56308;DHT22;42217;50.422;7.210;2023-05-29T04:42:36;12.60;99.90
56308;DHT22;42217;50.422;7.210;2023-05-29T04:45:03;12.60;99.90
56308;DHT22;42217;50.422;7.210;2023-05-29T04:47:30;12.60;99.90
56308;DHT22;42217;50.422;7.210;2023-05-29T04:49:59;12.70;99.90
56308;DHT22;42217;50.422;7.210;2023-05-29T04:52:26;12.60;99.90
56308;DHT22;42217;50.422;7.210;2023-05-29T04:54:51;12.60;99.90
56308;DHT22;42217;50.422;7.210;2023-05-29T04:57:17;12.70;99.90
56308;DHT22;42217;50.422;7.210;2023-05-29T04:59:43;12.60;99.90
56308;DHT22;42217;50.422;7.210;2023-05-29T05:02:09;12.70;99.90
56308;DHT22;42217;50.422;7.210;2023-05-29T05:04:35;12.80;99.90
56308;DHT22;42217;50.422;7.210;2023-05-29T05:07:01;12.70;99.90
56308;DHT22;42217;50.422;7.210;2023-05-29T05:09:28;12.70;99.90
56308;DHT22;42217;50.422;7.210;2023-05-29T05:11:54;12.70;99.90
56308;DHT22;42217;50.422;7.210;2023-05-29T05:14:22;12.70;99.90
56308;DHT22;42217;50.422;7.210;2023-05-29T05:16:47;12.80;99.90
56308;DHT22;42217;50.422;7.210;2023-05-29T05:19:13;12.90;99.90
56308;DHT22;42217;50.422;7.210;2023-05-29T05:21:39;12.90;99.90
56308;DHT22;42217;50.422;7.210;2023-05-29T05:24:04;12.90;99.90
56308;DHT22;42217;50.422;7.210;2023-05-29T05:26:30;12.90;99.90
56308;DHT22;42217;50.422;7.210;2023-05-29T05:28:56;13.00;99.90
56308;DHT22;42217;50.422;7.210;2023-05-29T05:31:22;13.10;99.90
56308;DHT22;42217;50.422;7.210;2023-05-29T05:33:48;13.10;99.90
56308;DHT22;42217;50.422;7.210;2023-05-29T05:36:14;13.20;99.90
56308;DHT22;42217;50.422;7.210;2023-05-29T05:38:39;13.20;99.90
56308;DHT22;42217;50.422;7.210;2023-05-29T05:41:05;13.30;99.90
56308;DHT22;42217;50.422;7.210;2023-05-29T05:43:31;13.50;99.90
56308;DHT22;42217;50.422;7.210;2023-05-29T05:45:57;13.50;99.90
56308;DHT22;42217;50.422;7.210;2023-05-29T05:48:23;13.50;99.90
56308;DHT22;42217;50.422;7.210;2023-05-29T05:50:48;13.50;99.90
56308;DHT22;42217;50.422;7.210;2023-05-29T05:53:15;13.60;99.90
56308;DHT22;42217;50.422;7.210;2023-05-29T05:55:42;13.60;99.90
56308;DHT22;42217;50.422;7.210;2023-05-29T05:58:08;13.80;99.90
56308;DHT22;42217;50.422;7.210;2023-05-29T06:00:33;13.80;99.90
56308;DHT22;42217;50.422;7.210;2023-05-29T06:02:59;14.00;99.90
56308;DHT22;42217;50.422;7.210;2023-05-29T06:05:25;14.00;99.90
56308;DHT22;42217;50.422;7.210;2023-05-29T06:07:51;14.00;99.90
56308;DHT22;42217;50.422;7.210;2023-05-29T06:10:17;14.00;99.90
56308;DHT22;42217;50.422;7.210;2023-05-29T06:12:43;13.90;99.90
56308;DHT22;42217;50.422;7.210;2023-05-29T06:15:09;13.90;99.90
56308;DHT22;42217;50.422;7.210;2023-05-29T06:17:34;14.10;99.90
56308;DHT22;42217;50.422;7.210;2023-05-29T06:20:00;14.10;99.90
56308;DHT22;42217;50.422;7.210;2023-05-29T06:22:26;14.00;99.90
56308;DHT22;42217;50.422;7.210;2023-05-29T06:24:51;14.10;99.90
56308;DHT22;42217;50.422;7.210;2023-05-29T06:27:17;14.10;99.90
56308;DHT22;42217;50.422;7.210;2023-05-29T06:29:44;14.20;99.90
56308;DHT22;42217;50.422;7.210;2023-05-29T06:32:09;14.30;99.90
56308;DHT22;42217;50.422;7.210;2023-05-29T06:34:35;14.20;99.90
56308;DHT22;42217;50.422;7.210;2023-05-29T06:37:01;14.40;99.90
56308;DHT22;42217;50.422;7.210;2023-05-29T06:39:27;14.40;99.90
56308;DHT22;42217;50.422;7.210;2023-05-29T06:41:52;14.40;99.90
56308;DHT22;42217;50.422;7.210;2023-05-29T06:44:18;14.50;99.90
56308;DHT22;42217;50.422;7.210;2023-05-29T06:46:44;14.50;99.90
56308;DHT22;42217;50.422;7.210;2023-05-29T06:49:13;14.40;99.90
56308;DHT22;42217;50.422;7.210;2023-05-29T06:51:38;14.40;99.90
56308;DHT22;42217;50.422;7.210;2023-05-29T06:54:04;14.60;99.90
56308;DHT22;42217;50.422;7.210;2023-05-29T06:56:30;14.80;99.90
56308;DHT22;42217;50.422;7.210;2023-05-29T06:58:56;15.00;99.90
56308;DHT22;42217;50.422;7.210;2023-05-29T07:01:21;15.10;99.80
56308;DHT22;42217;50.422;7.210;2023-05-29T07:03:52;15.20;99.90
56308;DHT22;42217;50.422;7.210;2023-05-29T07:06:18;15.40;96.50
56308;DHT22;42217;50.422;7.210;2023-05-29T07:08:43;15.30;99.90
56308;DHT22;42217;50.422;7.210;2023-05-29T07:11:09;15.10;98.70
56308;DHT22;42217;50.422;7.210;2023-05-29T07:13:35;15.10;99.90
56308;DHT22;42217;50.422;7.210;2023-05-29T07:16:01;15.10;99.90
56308;DHT22;42217;50.422;7.210;2023-05-29T07:18:26;15.30;99.40
56308;DHT22;42217;50.422;7.210;2023-05-29T07:20:55;15.30;99.90
56308;DHT22;42217;50.422;7.210;2023-05-29T07:23:21;15.20;97.60
56308;DHT22;42217;50.422;7.210;2023-05-29T07:25:47;15.10;99.30
56308;DHT22;42217;50.422;7.210;2023-05-29T07:28:12;15.10;98.00
56308;DHT22;42217;50.422;7.210;2023-05-29T07:30:38;15.10;99.80
56308;DHT22;42217;50.422;7.210;2023-05-29T07:33:04;15.20;97.80
56308;DHT22;42217;50.422;7.210;2023-05-29T07:35:30;15.30;99.90
56308;DHT22;42217;50.422;7.210;2023-05-29T07:37:58;15.30;98.90
56308;DHT22;42217;50.422;7.210;2023-05-29T07:40:24;15.30;99.40
56308;DHT22;42217;50.422;7.210;2023-05-29T07:42:49;15.60;99.90
56308;DHT22;42217;50.422;7.210;2023-05-29T07:45:15;15.60;99.40
56308;DHT22;42217;50.422;7.210;2023-05-29T07:47:41;15.50;99.30
56308;DHT22;42217;50.422;7.210;2023-05-29T07:50:07;15.40;99.70
56308;DHT22;42217;50.422;7.210;2023-05-29T07:52:33;15.40;98.30
56308;DHT22;42217;50.422;7.210;2023-05-29T07:54:59;15.50;99.00
56308;DHT22;42217;50.422;7.210;2023-05-29T07:57:27;15.40;99.90
56308;DHT22;42217;50.422;7.210;2023-05-29T07:59:53;15.40;99.90
56308;DHT22;42217;50.422;7.210;2023-05-29T08:02:19;15.60;96.20
56308;DHT22;42217;50.422;7.210;2023-05-29T08:04:45;15.70;95.30
56308;DHT22;42217;50.422;7.210;2023-05-29T08:07:11;15.80;95.40
56308;DHT22;42217;50.422;7.210;2023-05-29T08:09:37;15.90;96.70
56308;DHT22;42217;50.422;7.210;2023-05-29T08:12:03;16.00;95.70
56308;DHT22;42217;50.422;7.210;2023-05-29T08:14:28;16.10;97.70
56308;DHT22;42217;50.422;7.210;2023-05-29T08:16:54;16.10;95.30
56308;DHT22;42217;50.422;7.210;2023-05-29T08:19:20;15.80;93.90
56308;DHT22;42217;50.422;7.210;2023-05-29T08:21:45;15.90;97.70
56308;DHT22;42217;50.422;7.210;2023-05-29T08:24:11;15.90;98.30
56308;DHT22;42217;50.422;7.210;2023-05-29T08:26:37;15.90;93.80
56308;DHT22;42217;50.422;7.210;2023-05-29T08:29:03;15.90;93.90
56308;DHT22;42217;50.422;7.210;2023-05-29T08:31:29;16.10;92.80
56308;DHT22;42217;50.422;7.210;2023-05-29T08:33:55;16.00;97.90
56308;DHT22;42217;50.422;7.210;2023-05-29T08:36:21;16.20;94.90
56308;DHT22;42217;50.422;7.210;2023-05-29T08:38:48;16.30;93.30
56308;DHT22;42217;50.422;7.210;2023-05-29T08:41:47;16.40;92.10
56308;DHT22;42217;50.422;7.210;2023-05-29T08:44:21;16.30;92.30
56308;DHT22;42217;50.422;7.210;2023-05-29T08:46:47;16.40;95.20
56308;DHT22;42217;50.422;7.210;2023-05-29T08:49:16;16.70;88.20
56308;DHT22;42217;50.422;7.210;2023-05-29T08:51:47;16.70;88.10
56308;DHT22;42217;50.422;7.210;2023-05-29T08:54:15;16.90;92.40
56308;DHT22;42217;50.422;7.210;2023-05-29T08:56:41;16.90;87.30
56308;DHT22;42217;50.422;7.210;2023-05-29T08:59:08;16.80;90.70
56308;DHT22;42217;50.422;7.210;2023-05-29T09:01:35;16.80;93.50
56308;DHT22;42217;50.422;7.210;2023-05-29T09:04:01;17.00;91.50
56308;DHT22;42217;50.422;7.210;2023-05-29T09:06:27;17.10;85.40
56308;DHT22;42217;50.422;7.210;2023-05-29T09:08:53;17.00;90.50
56308;DHT22;42217;50.422;7.210;2023-05-29T09:11:19;17.10;87.90
56308;DHT22;42217;50.422;7.210;2023-05-29T09:13:46;17.10;86.20
56308;DHT22;42217;50.422;7.210;2023-05-29T09:16:13;17.10;80.80
56308;DHT22;42217;50.422;7.210;2023-05-29T09:18:41;17.20;88.40
56308;DHT22;42217;50.422;7.210;2023-05-29T09:21:16;17.30;90.10
56308;DHT22;42217;50.422;7.210;2023-05-29T09:23:53;17.30;84.20
56308;DHT22;42217;50.422;7.210;2023-05-29T09:26:21;17.30;80.30
56308;DHT22;42217;50.422;7.210;2023-05-29T09:28:47;17.40;84.20
56308;DHT22;42217;50.422;7.210;2023-05-29T09:31:14;17.50;83.30
56308;DHT22;42217;50.422;7.210;2023-05-29T09:33:49;17.60;76.50
56308;DHT22;42217;50.422;7.210;2023-05-29T09:36:22;17.60;70.00
56308;DHT22;42217;50.422;7.210;2023-05-29T09:38:48;17.60;67.20
56308;DHT22;42217;50.422;7.210;2023-05-29T09:41:21;17.80;66.90
56308;DHT22;42217;50.422;7.210;2023-05-29T09:43:52;17.80;61.70
56308;DHT22;42217;50.422;7.210;2023-05-29T09:46:20;18.00;54.00
56308;DHT22;42217;50.422;7.210;2023-05-29T09:48:46;17.80;54.30
56308;DHT22;42217;50.422;7.210;2023-05-29T09:51:20;17.70;58.80
56308;DHT22;42217;50.422;7.210;2023-05-29T09:53:47;18.00;42.90
56308;DHT22;42217;50.422;7.210;2023-05-29T09:56:15;18.10;46.60
56308;DHT22;42217;50.422;7.210;2023-05-29T09:58:43;18.20;37.70
56308;DHT22;42217;50.422;7.210;2023-05-29T10:01:13;18.10;49.80
56308;DHT22;42217;50.422;7.210;2023-05-29T10:03:41;18.10;38.30
56308;DHT22;42217;50.422;7.210;2023-05-29T10:06:12;18.20;53.40
56308;DHT22;42217;50.422;7.210;2023-05-29T10:08:46;18.30;34.60
56308;DHT22;42217;50.422;7.210;2023-05-29T10:11:18;18.50;25.40
56308;DHT22;42217;50.422;7.210;2023-05-29T10:13:50;18.40;46.10
56308;DHT22;42217;50.422;7.210;2023-05-29T10:16:21;18.40;35.60
56308;DHT22;42217;50.422;7.210;2023-05-29T10:18:56;18.50;49.60
56308;DHT22;42217;50.422;7.210;2023-05-29T10:21:22;18.50;36.80
56308;DHT22;42217;50.422;7.210;2023-05-29T10:23:49;18.50;28.50
56308;DHT22;42217;50.422;7.210;2023-05-29T10:26:20;18.60;41.00
56308;DHT22;42217;50.422;7.210;2023-05-29T10:40:06;18.60;7.90
56308;DHT22;42217;50.422;7.210;2023-05-29T10:42:47;18.60;9.70
56308;DHT22;42217;50.422;7.210;2023-05-29T10:50:47;18.90;1.00
56308;DHT22;42217;50.422;7.210;2023-05-29T10:53:20;18.90;1.00
56308;DHT22;42217;50.422;7.210;2023-05-29T10:55:50;18.90;1.00
56308;DHT22;42217;50.422;7.210;2023-05-29T10:58:28;19.10;1.00
56308;DHT22;42217;50.422;7.210;2023-05-29T11:00:58;19.50;1.00
56308;DHT22;42217;50.422;7.210;2023-05-29T11:03:31;19.60;1.00
56308;DHT22;42217;50.422;7.210;2023-05-29T11:06:03;19.60;1.00
56308;DHT22;42217;50.422;7.210;2023-05-29T11:08:43;19.40;1.00
56308;DHT22;42217;50.422;7.210;2023-05-29T11:11:31;19.40;1.00
56308;DHT22;42217;50.422;7.210;2023-05-29T11:14:04;19.40;1.00
56308;DHT22;42217;50.422;7.210;2023-05-29T11:18:57;19.60;1.00
56308;DHT22;42217;50.422;7.210;2023-05-29T11:23:52;19.80;1.00
56308;DHT22;42217;50.422;7.210;2023-05-29T11:26:25;19.90;1.00
56308;DHT22;42217;50.422;7.210;2023-05-29T11:28:51;20.00;1.00
56308;DHT22;42217;50.422;7.210;2023-05-29T11:31:18;20.00;1.00
56308;DHT22;42217;50.422;7.210;2023-05-29T11:33:50;20.00;1.00
56308;DHT22;42217;50.422;7.210;2023-05-29T11:36:21;20.00;1.00
56308;DHT22;42217;50.422;7.210;2023-05-29T11:38:47;19.90;1.00
56308;DHT22;42217;50.422;7.210;2023-05-29T11:41:13;20.00;1.00
56308;DHT22;42217;50.422;7.210;2023-05-29T11:43:42;20.10;1.00
56308;DHT22;42217;50.422;7.210;2023-05-29T11:46:18;20.20;1.00
56308;DHT22;42217;50.422;7.210;2023-05-29T11:48:46;20.00;1.00
56308;DHT22;42217;50.422;7.210;2023-05-29T11:51:12;20.20;1.00
56308;DHT22;42217;50.422;7.210;2023-05-29T11:53:40;20.40;99.90
56308;DHT22;42217;50.422;7.210;2023-05-29T11:56:10;20.70;99.90
56308;DHT22;42217;50.422;7.210;2023-05-29T11:58:39;20.40;99.90
56308;DHT22;42217;50.422;7.210;2023-05-29T12:01:06;20.60;1.00
56308;DHT22;42217;50.422;7.210;2023-05-29T12:03:45;20.70;99.90
56308;DHT22;42217;50.422;7.210;2023-05-29T12:06:11;20.60;99.90
56308;DHT22;42217;50.422;7.210;2023-05-29T12:08:37;20.70;99.90
56308;DHT22;42217;50.422;7.210;2023-05-29T12:11:04;20.90;99.90
56308;DHT22;42217;50.422;7.210;2023-05-29T12:13:30;21.10;99.90
56308;DHT22;42217;50.422;7.210;2023-05-29T12:16:05;21.10;99.90
56308;DHT22;42217;50.422;7.210;2023-05-29T12:18:31;21.20;99.90
56308;DHT22;42217;50.422;7.210;2023-05-29T12:20:59;21.40;99.90
56308;DHT22;42217;50.422;7.210;2023-05-29T12:23:25;21.40;99.90
56308;DHT22;42217;50.422;7.210;2023-05-29T12:25:51;21.60;99.90
56308;DHT22;42217;50.422;7.210;2023-05-29T12:28:18;21.60;99.90
56308;DHT22;42217;50.422;7.210;2023-05-29T12:30:44;21.60;99.90
56308;DHT22;42217;50.422;7.210;2023-05-29T12:33:31;21.90;99.90
56308;DHT22;42217;50.422;7.210;2023-05-29T12:36:05;22.30;99.90
56308;DHT22;42217;50.422;7.210;2023-05-29T12:38:32;22.30;43.40
56308;DHT22;42217;50.422;7.210;2023-05-29T12:40:58;22.50;95.40
56308;DHT22;42217;50.422;7.210;2023-05-29T12:43:23;22.50;1.00
56308;DHT22;42217;50.422;7.210;2023-05-29T12:45:55;22.70;7.20
56308;DHT22;42217;50.422;7.210;2023-05-29T12:48:26;22.50;1.00
56308;DHT22;42217;50.422;7.210;2023-05-29T12:50:52;22.20;1.00
56308;DHT22;42217;50.422;7.210;2023-05-29T12:53:18;22.30;37.80
56308;DHT22;42217;50.422;7.210;2023-05-29T12:55:44;22.20;46.40
56308;DHT22;42217;50.422;7.210;2023-05-29T12:58:12;22.30;1.00
56308;DHT22;42217;50.422;7.210;2023-05-29T13:00:39;22.60;1.00
56308;DHT22;42217;50.422;7.210;2023-05-29T13:03:06;23.40;99.90
56308;DHT22;42217;50.422;7.210;2023-05-29T13:05:32;23.50;99.90
56308;DHT22;42217;50.422;7.210;2023-05-29T13:07:58;23.40;99.90
56308;DHT22;42217;50.422;7.210;2023-05-29T13:10:27;24.10;99.90
56308;DHT22;42217;50.422;7.210;2023-05-29T13:12:54;24.80;99.90
56308;DHT22;42217;50.422;7.210;2023-05-29T13:15:22;24.70;99.90
56308;DHT22;42217;50.422;7.210;2023-05-29T13:17:48;25.00;99.90
56308;DHT22;42217;50.422;7.210;2023-05-29T13:20:14;25.20;99.90
56308;DHT22;42217;50.422;7.210;2023-05-29T13:22:42;25.10;76.00
56308;DHT22;42217;50.422;7.210;2023-05-29T13:25:09;25.60;99.90
56308;DHT22;42217;50.422;7.210;2023-05-29T13:27:42;26.00;99.90
56308;DHT22;42217;50.422;7.210;2023-05-29T13:30:09;25.70;99.90
56308;DHT22;42217;50.422;7.210;2023-05-29T13:32:35;25.50;1.00
56308;DHT22;42217;50.422;7.210;2023-05-29T13:35:02;25.80;99.90
56308;DHT22;42217;50.422;7.210;2023-05-29T13:37:28;25.70;99.90
56308;DHT22;42217;50.422;7.210;2023-05-29T13:39:54;25.90;1.00
56308;DHT22;42217;50.422;7.210;2023-05-29T13:42:20;26.10;1.00
56308;DHT22;42217;50.422;7.210;2023-05-29T13:44:47;26.20;1.00
56308;DHT22;42217;50.422;7.210;2023-05-29T13:47:14;26.30;1.00
56308;DHT22;42217;50.422;7.210;2023-05-29T13:49:39;26.20;99.90
56308;DHT22;42217;50.422;7.210;2023-05-29T13:52:05;25.80;99.90
56308;DHT22;42217;50.422;7.210;2023-05-29T13:54:31;26.10;92.00
56308;DHT22;42217;50.422;7.210;2023-05-29T13:57:01;26.60;99.90
56308;DHT22;42217;50.422;7.210;2023-05-29T13:59:27;26.90;99.90
56308;DHT22;42217;50.422;7.210;2023-05-29T14:01:52;27.10;1.00
56308;DHT22;42217;50.422;7.210;2023-05-29T14:04:18;27.30;99.90
56308;DHT22;42217;50.422;7.210;2023-05-29T14:06:44;26.80;1.00
56308;DHT22;42217;50.422;7.210;2023-05-29T14:09:10;26.40;1.00
56308;DHT22;42217;50.422;7.210;2023-05-29T14:11:36;27.00;99.90
56308;DHT22;42217;50.422;7.210;2023-05-29T14:14:03;27.00;99.90
56308;DHT22;42217;50.422;7.210;2023-05-29T14:16:29;26.80;99.90
56308;DHT22;42217;50.422;7.210;2023-05-29T14:18:55;26.60;99.90
56308;DHT22;42217;50.422;7.210;2023-05-29T14:21:21;26.70;99.90
56308;DHT22;42217;50.422;7.210;2023-05-29T14:23:46;26.50;1.00
56308;DHT22;42217;50.422;7.210;2023-05-29T14:26:12;26.20;31.40
56308;DHT22;42217;50.422;7.210;2023-05-29T14:28:38;26.30;1.00
56308;DHT22;42217;50.422;7.210;2023-05-29T14:31:07;26.80;6.40
56308;DHT22;42217;50.422;7.210;2023-05-29T14:33:33;27.40;1.00
56308;DHT22;42217;50.422;7.210;2023-05-29T14:35:59;28.10;1.00
56308;DHT22;42217;50.422;7.210;2023-05-29T14:38:25;27.20;99.90
56308;DHT22;42217;50.422;7.210;2023-05-29T14:40:51;26.40;99.90
56308;DHT22;42217;50.422;7.210;2023-05-29T14:43:17;26.00;99.90
56308;DHT22;42217;50.422;7.210;2023-05-29T14:45:43;25.80;1.00
56308;DHT22;42217;50.422;7.210;2023-05-29T14:48:09;25.80;1.00
56308;DHT22;42217;50.422;7.210;2023-05-29T14:50:36;25.70;99.90
56308;DHT22;42217;50.422;7.210;2023-05-29T14:53:02;25.90;99.90
56308;DHT22;42217;50.422;7.210;2023-05-29T14:55:28;25.90;99.90
56308;DHT22;42217;50.422;7.210;2023-05-29T14:57:54;26.00;99.90
56308;DHT22;42217;50.422;7.210;2023-05-29T15:00:20;26.50;99.90
56308;DHT22;42217;50.422;7.210;2023-05-29T15:02:45;26.60;1.00
56308;DHT22;42217;50.422;7.210;2023-05-29T15:05:11;26.70;1.00
56308;DHT22;42217;50.422;7.210;2023-05-29T15:07:37;26.70;99.90
56308;DHT22;42217;50.422;7.210;2023-05-29T15:10:03;26.10;1.00
56308;DHT22;42217;50.422;7.210;2023-05-29T15:12:31;26.40;1.00
56308;DHT22;42217;50.422;7.210;2023-05-29T15:14:57;26.70;99.90
56308;DHT22;42217;50.422;7.210;2023-05-29T15:17:22;27.10;99.90
56308;DHT22;42217;50.422;7.210;2023-05-29T15:19:48;26.60;99.90
56308;DHT22;42217;50.422;7.210;2023-05-29T15:22:17;25.90;99.90
56308;DHT22;42217;50.422;7.210;2023-05-29T15:24:43;25.80;1.00
56308;DHT22;42217;50.422;7.210;2023-05-29T15:27:09;26.10;49.20
56308;DHT22;42217;50.422;7.210;2023-05-29T15:29:35;26.50;1.00
56308;DHT22;42217;50.422;7.210;2023-05-29T15:32:02;27.10;99.90
56308;DHT22;42217;50.422;7.210;2023-05-29T15:34:28;28.10;99.90
56308;DHT22;42217;50.422;7.210;2023-05-29T15:36:54;27.90;1.00
56308;DHT22;42217;50.422;7.210;2023-05-29T15:39:20;27.40;99.90
56308;DHT22;42217;50.422;7.210;2023-05-29T15:41:46;26.50;29.10
56308;DHT22;42217;50.422;7.210;2023-05-29T15:44:12;26.20;99.90
56308;DHT22;42217;50.422;7.210;2023-05-29T15:46:38;25.60;99.90
56308;DHT22;42217;50.422;7.210;2023-05-29T15:49:04;25.40;1.00
56308;DHT22;42217;50.422;7.210;2023-05-29T15:51:29;25.20;1.00
56308;DHT22;42217;50.422;7.210;2023-05-29T15:53:56;25.60;1.00
56308;DHT22;42217;50.422;7.210;2023-05-29T15:56:21;25.60;35.90
56308;DHT22;42217;50.422;7.210;2023-05-29T15:58:52;26.30;99.90